createdAt,value
2022-08-29T00:01:10.476Z,9.82
2022-08-29T00:03:37.463Z,10.85
2022-08-29T00:06:04.854Z,8.65
2022-08-29T00:08:31.647Z,8.48
2022-08-29T00:10:58.532Z,10.80
2022-08-29T00:13:25.464Z,9.60
2022-08-29T00:15:52.310Z,8.95
2022-08-29T00:18:20.550Z,6.82
2022-08-29T00:23:14.876Z,10.82
2022-08-29T00:25:41.946Z,7.28
2022-08-29T00:28:08.976Z,13.63
2022-08-29T00:30:37.045Z,10.32
2022-08-29T00:33:04.238Z,8.00
2022-08-29T00:35:37.230Z,7.93
2022-08-29T00:38:06.293Z,7.97
2022-08-29T00:40:40.208Z,8.68
2022-08-29T00:43:08.052Z,9.27
2022-08-29T00:45:37.532Z,8.82
2022-08-29T00:48:15.796Z,8.02
2022-08-29T00:50:51.358Z,7.13
2022-08-29T00:53:23.792Z,11.52
2022-08-29T00:55:51.552Z,7.40
2022-08-29T00:58:28.587Z,8.38
2022-08-29T01:00:55.818Z,9.52
2022-08-29T01:03:23.000Z,8.10
2022-08-29T01:05:50.083Z,8.93
2022-08-29T01:08:16.927Z,10.88
2022-08-29T01:11:03.095Z,8.68
2022-08-29T01:13:43.027Z,7.30
2022-08-29T01:16:12.026Z,9.13
2022-08-29T01:18:41.034Z,10.13
2022-08-29T01:21:24.996Z,9.88
2022-08-29T01:24:10.632Z,8.82
2022-08-29T01:26:37.899Z,36.83
2022-08-29T01:29:04.763Z,12.00
2022-08-29T01:31:57.261Z,6.80
2022-08-29T01:34:26.280Z,9.38
2022-08-29T01:37:02.124Z,7.05
2022-08-29T01:39:32.923Z,11.02
2022-08-29T01:42:03.902Z,7.35
2022-08-29T01:44:30.901Z,7.38
2022-08-29T01:47:02.753Z,7.60
2022-08-29T01:49:34.858Z,8.57
2022-08-29T01:52:06.893Z,6.97
2022-08-29T01:54:34.500Z,15.52
2022-08-29T01:57:02.196Z,8.90
2022-08-29T01:59:30.708Z,8.45
2022-08-29T02:02:06.242Z,9.27
2022-08-29T02:04:33.889Z,8.00
2022-08-29T02:07:00.947Z,9.27
2022-08-29T02:09:29.045Z,11.15
2022-08-29T02:11:58.183Z,9.27
2022-08-29T02:14:26.380Z,8.10
2022-08-29T02:16:53.463Z,10.52
2022-08-29T02:19:20.334Z,8.23
2022-08-29T02:21:47.512Z,8.52
2022-08-29T02:24:25.551Z,9.90
2022-08-29T02:26:54.783Z,7.07
2022-08-29T02:29:21.905Z,8.52
2022-08-29T02:31:48.872Z,8.27
2022-08-29T02:34:16.172Z,9.85
2022-08-29T02:36:43.999Z,12.02
2022-08-29T02:41:38.871Z,8.52
2022-08-29T02:44:07.306Z,9.95
2022-08-29T02:46:34.194Z,9.65
2022-08-29T02:49:01.580Z,8.18
2022-08-29T02:51:31.946Z,13.47
2022-08-29T02:53:59.392Z,9.77
2022-08-29T02:56:27.104Z,10.90
2022-08-29T02:58:53.956Z,12.50
2022-08-29T03:01:23.059Z,8.68
2022-08-29T03:03:51.108Z,9.00
2022-08-29T03:06:19.377Z,7.47
2022-08-29T03:11:14.056Z,8.00
2022-08-29T03:13:41.971Z,11.02
2022-08-29T03:16:09.081Z,12.35
2022-08-29T03:18:36.080Z,9.57
2022-08-29T03:21:02.957Z,7.22
2022-08-29T03:23:29.822Z,8.95
2022-08-29T03:25:56.791Z,10.10
2022-08-29T03:28:23.633Z,8.73
2022-08-29T03:30:50.471Z,11.77
2022-08-29T03:33:18.100Z,10.75
2022-08-29T03:35:44.893Z,8.38
2022-08-29T03:38:11.836Z,9.85
2022-08-29T03:40:41.735Z,10.10
2022-08-29T03:43:09.574Z,6.63
2022-08-29T03:45:36.628Z,6.80
2022-08-29T03:48:03.798Z,8.05
2022-08-29T03:50:30.859Z,8.35
2022-08-29T03:52:57.820Z,11.93
2022-08-29T03:55:24.692Z,6.95
2022-08-29T03:57:51.469Z,8.93
2022-08-29T04:00:19.313Z,17.10
2022-08-29T04:02:48.227Z,8.13
2022-08-29T04:05:18.240Z,9.35
2022-08-29T04:07:50.023Z,9.32
2022-08-29T04:10:38.250Z,11.95
2022-08-29T04:13:06.641Z,11.05
2022-08-29T04:18:03.448Z,9.25
2022-08-29T04:20:32.967Z,8.20
2022-08-29T04:23:00.360Z,8.93
2022-08-29T04:25:31.997Z,5.97
2022-08-29T04:28:00.973Z,9.30
2022-08-29T04:30:28.615Z,8.88
2022-08-29T04:32:55.843Z,8.15
2022-08-29T04:35:22.787Z,14.70
2022-08-29T04:37:49.767Z,10.10
2022-08-29T04:40:20.266Z,11.63
2022-08-29T04:42:47.690Z,8.25
2022-08-29T04:45:17.980Z,10.97
2022-08-29T04:47:45.629Z,8.85
2022-08-29T04:50:15.966Z,13.38
2022-08-29T04:52:43.889Z,17.20
2022-08-29T04:55:11.815Z,13.23
2022-08-29T04:57:39.894Z,8.88
2022-08-29T05:00:14.172Z,11.00
2022-08-29T05:02:42.780Z,8.93
2022-08-29T05:05:12.493Z,11.45
2022-08-29T05:07:39.447Z,10.18
2022-08-29T05:10:13.622Z,14.48
2022-08-29T05:12:41.313Z,12.10
2022-08-29T05:15:08.733Z,11.27
2022-08-29T05:17:35.635Z,11.00
2022-08-29T05:20:05.770Z,11.60
2022-08-29T05:22:33.291Z,13.32
2022-08-29T05:25:00.501Z,16.38
2022-08-29T05:27:27.396Z,13.23
2022-08-29T05:29:54.218Z,19.85
2022-08-29T05:32:21.494Z,14.90
2022-08-29T05:34:49.687Z,11.68
2022-08-29T05:37:19.720Z,13.85
2022-08-29T05:39:47.378Z,13.05
2022-08-29T05:42:17.032Z,14.40
2022-08-29T05:44:44.171Z,10.63
2022-08-29T05:47:13.035Z,11.52
2022-08-29T05:49:42.135Z,11.20
2022-08-29T05:52:10.321Z,16.40
2022-08-29T05:54:39.455Z,14.00
2022-08-29T05:57:08.655Z,13.50
2022-08-29T05:59:36.452Z,10.63
2022-08-29T06:02:04.327Z,12.70
2022-08-29T06:04:31.159Z,13.40
2022-08-29T06:06:58.012Z,14.38
2022-08-29T06:09:24.801Z,12.60
2022-08-29T06:11:57.626Z,12.65
2022-08-29T06:14:25.459Z,12.85
2022-08-29T06:16:53.625Z,12.07
2022-08-29T06:19:20.511Z,13.27
2022-08-29T06:21:47.680Z,15.38
2022-08-29T06:24:15.260Z,11.55
2022-08-29T06:26:44.046Z,12.23
2022-08-29T06:29:11.929Z,12.50
2022-08-29T06:31:39.429Z,15.98
2022-08-29T06:34:07.692Z,16.38
2022-08-29T06:39:07.528Z,13.02
2022-08-29T06:41:36.254Z,15.50
2022-08-29T06:44:03.791Z,10.90
2022-08-29T06:46:34.367Z,14.05
2022-08-29T06:49:06.259Z,13.40
2022-08-29T06:51:35.282Z,11.65
2022-08-29T06:54:08.429Z,11.93
2022-08-29T06:56:37.466Z,12.45
2022-08-29T06:59:05.454Z,12.48
2022-08-29T07:01:33.439Z,14.57
2022-08-29T07:04:01.685Z,14.50
2022-08-29T07:06:28.762Z,12.13
2022-08-29T07:08:56.788Z,12.68
2022-08-29T07:11:30.058Z,10.73
2022-08-29T07:13:59.216Z,11.70
2022-08-29T07:16:26.895Z,10.68
2022-08-29T07:18:54.673Z,12.63
2022-08-29T07:21:23.656Z,13.70
2022-08-29T07:23:52.083Z,11.07
2022-08-29T07:26:20.775Z,13.15
2022-08-29T07:28:50.093Z,11.32
2022-08-29T07:31:17.146Z,10.15
2022-08-29T07:33:44.100Z,12.25
2022-08-29T07:36:11.017Z,10.30
2022-08-29T07:38:39.377Z,11.02
2022-08-29T07:41:08.868Z,11.93
2022-08-29T07:43:36.770Z,11.73
2022-08-29T07:46:12.969Z,10.27
2022-08-29T07:48:40.868Z,10.65
2022-08-29T07:51:10.754Z,14.63
2022-08-29T07:53:38.320Z,19.33
2022-08-29T07:56:09.995Z,14.20
2022-08-29T07:58:38.143Z,13.20
2022-08-29T08:01:05.588Z,12.13
2022-08-29T08:03:34.489Z,10.68
2022-08-29T08:06:06.991Z,10.68
2022-08-29T08:08:34.590Z,15.20
2022-08-29T08:11:04.096Z,11.77
2022-08-29T08:13:31.131Z,10.05
2022-08-29T08:15:58.326Z,10.60
2022-08-29T08:18:25.803Z,11.40
2022-08-29T08:20:52.614Z,10.43
2022-08-29T08:23:20.066Z,9.02
2022-08-29T08:25:47.151Z,12.05
2022-08-29T08:28:15.159Z,12.45
2022-08-29T08:30:43.020Z,11.75
2022-08-29T08:33:10.163Z,13.07
2022-08-29T08:35:41.890Z,8.75
2022-08-29T08:38:10.262Z,11.25
2022-08-29T08:40:57.028Z,10.70
2022-08-29T08:43:32.412Z,12.95
2022-08-29T08:45:59.803Z,11.95
2022-08-29T08:48:36.103Z,12.77
2022-08-29T08:51:18.490Z,12.43
2022-08-29T08:53:48.770Z,11.18
2022-08-29T08:56:20.198Z,13.77
2022-08-29T08:59:25.114Z,11.75
2022-08-29T09:02:16.481Z,10.45
2022-08-29T09:05:20.456Z,10.02
2022-08-29T09:08:12.427Z,14.07
2022-08-29T09:11:10.128Z,12.18
2022-08-29T09:13:52.862Z,10.40
2022-08-29T09:16:28.616Z,14.88
2022-08-29T09:19:03.143Z,11.35
2022-08-29T09:21:41.173Z,10.77
2022-08-29T09:24:18.827Z,10.55
2022-08-29T09:26:47.079Z,9.30
2022-08-29T09:31:41.383Z,10.40
2022-08-29T09:34:12.779Z,10.70
2022-08-29T09:36:52.810Z,9.27
2022-08-29T09:39:33.539Z,8.95
2022-08-29T09:42:12.535Z,13.63
2022-08-29T09:44:41.605Z,11.93
2022-08-29T09:47:21.115Z,10.30
2022-08-29T09:50:18.962Z,13.65
2022-08-29T09:55:24.151Z,13.00
2022-08-29T09:57:59.551Z,14.27
2022-08-29T10:00:37.598Z,9.88
2022-08-29T10:03:10.164Z,11.73
2022-08-29T10:05:41.676Z,11.68
2022-08-29T10:08:28.276Z,10.10
2022-08-29T10:11:00.928Z,11.85
2022-08-29T10:13:37.614Z,9.50
2022-08-29T10:16:18.857Z,12.98
2022-08-29T10:18:55.224Z,10.85
2022-08-29T10:21:52.638Z,12.77
2022-08-29T10:24:44.080Z,10.85
2022-08-29T10:27:23.469Z,11.52
2022-08-29T10:30:05.271Z,10.05
2022-08-29T10:32:39.985Z,10.57
2022-08-29T10:35:54.235Z,9.82
2022-08-29T10:38:22.864Z,12.48
2022-08-29T10:43:31.169Z,9.27
2022-08-29T10:46:33.034Z,8.70
2022-08-29T10:49:28.791Z,10.35
2022-08-29T10:52:18.295Z,14.00
2022-08-29T10:55:30.094Z,11.35
2022-08-29T10:58:12.767Z,9.68
2022-08-29T11:01:08.995Z,12.38
2022-08-29T11:03:55.043Z,7.65
2022-08-29T11:09:16.507Z,10.95
2022-08-29T11:12:07.488Z,10.80
2022-08-29T11:15:07.393Z,10.18
2022-08-29T11:17:41.589Z,13.30
2022-08-29T11:20:21.642Z,10.25
2022-08-29T11:23:00.252Z,11.73
2022-08-29T11:25:29.750Z,8.38
2022-08-29T11:28:31.944Z,9.32
2022-08-29T11:31:08.976Z,8.60
2022-08-29T11:33:39.684Z,12.05
2022-08-29T11:36:26.355Z,12.75
2022-08-29T11:39:05.048Z,7.82
2022-08-29T11:41:41.094Z,8.77
2022-08-29T11:44:17.888Z,11.00
2022-08-29T11:46:48.979Z,9.52
2022-08-29T11:49:26.506Z,8.35
2022-08-29T11:52:17.717Z,11.38
2022-08-29T11:54:54.658Z,10.13
2022-08-29T11:57:37.666Z,12.98
2022-08-29T12:02:57.754Z,9.05
2022-08-29T12:05:52.229Z,6.65
2022-08-29T12:08:41.375Z,7.43
2022-08-29T12:11:08.831Z,8.55
2022-08-29T12:13:51.400Z,9.60
2022-08-29T12:16:27.778Z,8.13
2022-08-29T12:18:56.956Z,9.77
2022-08-29T12:21:39.452Z,7.95
2022-08-29T12:24:27.990Z,8.52
2022-08-29T12:26:54.965Z,7.18
2022-08-29T12:29:47.951Z,7.68
2022-08-29T12:32:35.762Z,8.93
2022-08-29T12:35:21.363Z,11.30
2022-08-29T12:38:00.982Z,10.13
2022-08-29T12:40:45.572Z,7.88
2022-08-29T12:43:43.840Z,12.02
2022-08-29T12:46:20.591Z,7.90
2022-08-29T12:48:57.564Z,7.82
2022-08-29T12:51:36.570Z,8.52
2022-08-29T12:54:03.572Z,9.50
2022-08-29T12:56:30.736Z,7.60
2022-08-29T12:59:03.664Z,8.45
2022-08-29T13:01:39.831Z,7.60
2022-08-29T13:04:18.986Z,12.40
2022-08-29T13:06:56.874Z,9.52
2022-08-29T13:09:41.307Z,8.52
2022-08-29T13:12:18.396Z,7.68
2022-08-29T13:14:56.007Z,10.02
2022-08-29T13:17:29.976Z,7.78
2022-08-29T13:20:35.596Z,8.90
2022-08-29T13:23:17.546Z,6.32
2022-08-29T13:25:56.208Z,9.13
2022-08-29T13:28:33.967Z,7.80
2022-08-29T13:31:05.088Z,8.50
2022-08-29T13:33:35.550Z,6.82
2022-08-29T13:36:41.443Z,8.20
2022-08-29T13:39:17.443Z,6.00
2022-08-29T13:41:53.279Z,6.57
2022-08-29T13:44:23.358Z,8.15
2022-08-29T13:46:52.438Z,6.72
2022-08-29T13:49:23.670Z,5.50
2022-08-29T13:51:51.175Z,7.70
2022-08-29T13:54:18.557Z,7.10
2022-08-29T13:56:49.394Z,6.90
2022-08-29T13:59:20.863Z,7.03
2022-08-29T14:04:38.515Z,5.95
2022-08-29T14:07:07.001Z,5.60
2022-08-29T14:09:39.919Z,5.33
2022-08-29T14:12:07.900Z,9.07
2022-08-29T14:14:35.512Z,8.68
2022-08-29T14:17:02.469Z,6.38
2022-08-29T14:19:30.775Z,7.65
2022-08-29T14:22:02.079Z,7.07
2022-08-29T14:24:30.039Z,7.60
2022-08-29T14:27:02.075Z,5.72
2022-08-29T14:29:33.150Z,7.00
2022-08-29T14:32:03.075Z,5.28
2022-08-29T14:34:32.551Z,5.13
2022-08-29T14:37:01.128Z,5.68
2022-08-29T14:39:28.401Z,5.25
2022-08-29T14:41:55.748Z,5.33
2022-08-29T14:44:23.519Z,6.87
2022-08-29T14:46:51.348Z,5.88
2022-08-29T14:49:18.555Z,8.07
2022-08-29T14:51:45.441Z,5.68
2022-08-29T14:54:12.804Z,5.43
2022-08-29T14:56:50.170Z,4.83
2022-08-29T14:59:21.029Z,7.47
2022-08-29T15:01:53.848Z,6.78
2022-08-29T15:04:36.608Z,6.25
2022-08-29T15:07:08.617Z,5.05
2022-08-29T15:09:35.561Z,5.50
2022-08-29T15:12:02.998Z,4.20
2022-08-29T15:14:30.319Z,5.93
2022-08-29T15:16:57.141Z,4.27
2022-08-29T15:19:58.103Z,5.28
2022-08-29T15:22:11.637Z,3.47
2022-08-29T15:24:39.319Z,4.75
2022-08-29T15:27:06.584Z,4.45
2022-08-29T15:29:34.054Z,3.40
2022-08-29T15:32:01.076Z,4.38
2022-08-29T15:34:29.248Z,3.35
2022-08-29T15:39:25.443Z,4.25
2022-08-29T15:41:52.338Z,2.90
2022-08-29T15:44:19.156Z,3.72
2022-08-29T15:46:50.518Z,5.53
2022-08-29T15:49:19.595Z,4.75
2022-08-29T15:51:46.800Z,4.43
2022-08-29T15:54:14.604Z,4.20
2022-08-29T15:56:42.110Z,2.75
2022-08-29T15:59:11.483Z,5.57
2022-08-29T16:01:44.358Z,3.38
2022-08-29T16:04:11.997Z,3.45
2022-08-29T16:06:39.130Z,2.83
2022-08-29T16:09:09.152Z,4.13
2022-08-29T16:11:43.844Z,4.47
2022-08-29T16:16:58.573Z,3.25
2022-08-29T16:19:25.675Z,3.35
2022-08-29T16:21:52.867Z,2.63
2022-08-29T16:24:21.908Z,3.88
2022-08-29T16:26:48.812Z,3.53
2022-08-29T16:29:26.235Z,4.18
2022-08-29T16:34:25.431Z,3.35
2022-08-29T16:36:58.926Z,3.63
2022-08-29T16:39:26.715Z,3.10
2022-08-29T16:41:53.888Z,4.13
2022-08-29T16:44:21.767Z,7.30
2022-08-29T16:46:48.608Z,3.25
2022-08-29T16:49:15.455Z,3.63
2022-08-29T16:51:42.342Z,2.90
2022-08-29T16:54:09.579Z,2.75
2022-08-29T16:56:36.436Z,3.20
2022-08-29T16:59:04.498Z,5.43
2022-08-29T17:01:52.409Z,5.05
2022-08-29T17:04:23.433Z,4.13
2022-08-29T17:06:50.760Z,2.72
2022-08-29T17:09:20.590Z,2.40
2022-08-29T17:11:47.561Z,3.30
2022-08-29T17:14:15.362Z,3.53
2022-08-29T17:16:45.805Z,4.28
2022-08-29T17:19:14.439Z,2.35
2022-08-29T17:21:41.942Z,3.75
2022-08-29T17:24:09.733Z,2.35
2022-08-29T17:26:40.798Z,2.90
2022-08-29T17:29:08.709Z,4.30
2022-08-29T17:31:38.425Z,5.53
2022-08-29T17:34:07.112Z,3.40
2022-08-29T17:36:36.605Z,2.92
2022-08-29T17:39:04.974Z,6.47
2022-08-29T17:41:32.751Z,4.80
2022-08-29T17:43:59.680Z,4.10
2022-08-29T17:46:26.522Z,2.90
2022-08-29T17:48:53.488Z,4.68
2022-08-29T17:51:20.318Z,5.18
2022-08-29T17:53:49.859Z,4.07
2022-08-29T17:56:21.229Z,3.28
2022-08-29T17:58:48.736Z,3.63
2022-08-29T18:01:16.949Z,4.00
2022-08-29T18:03:45.494Z,4.20
2022-08-29T18:06:14.874Z,4.10
2022-08-29T18:08:47.861Z,3.72
2022-08-29T18:11:17.126Z,3.00
2022-08-29T18:13:44.407Z,3.25
2022-08-29T18:16:11.960Z,4.32
2022-08-29T18:18:39.411Z,4.28
2022-08-29T18:21:10.230Z,5.90
2022-08-29T18:23:37.723Z,4.07
2022-08-29T18:26:06.049Z,5.63
2022-08-29T18:28:33.650Z,6.20
2022-08-29T18:31:01.649Z,9.63
2022-08-29T18:33:44.245Z,8.32
2022-08-29T18:36:16.632Z,9.05
2022-08-29T18:38:43.570Z,7.70
2022-08-29T18:41:10.398Z,8.60
2022-08-29T18:43:37.412Z,8.15
2022-08-29T18:46:04.726Z,9.93
2022-08-29T18:48:32.180Z,7.23
2022-08-29T18:50:59.532Z,6.97
2022-08-29T18:53:28.963Z,8.83
2022-08-29T18:55:56.839Z,6.10
2022-08-29T18:58:26.595Z,8.40
2022-08-29T19:00:54.659Z,7.10
2022-08-29T19:05:51.753Z,7.33
2022-08-29T19:08:21.508Z,7.45
2022-08-29T19:10:48.382Z,10.93
2022-08-29T19:13:17.543Z,11.82
2022-08-29T19:18:16.572Z,15.10
2022-08-29T19:21:01.938Z,14.07
2022-08-29T19:23:37.739Z,12.75
2022-08-29T19:26:08.832Z,12.90
2022-08-29T19:28:36.559Z,13.07
2022-08-29T19:31:05.092Z,11.50
2022-08-29T19:33:32.226Z,9.02
2022-08-29T19:35:59.003Z,9.40
2022-08-29T19:38:27.497Z,7.47
2022-08-29T19:40:57.249Z,6.57
2022-08-29T19:43:27.415Z,6.82
2022-08-29T19:45:55.267Z,6.15
2022-08-29T19:48:22.508Z,8.18
2022-08-29T19:50:51.612Z,9.40
2022-08-29T19:53:26.594Z,11.13
2022-08-29T19:55:55.682Z,10.48
2022-08-29T19:58:31.214Z,8.18
2022-08-29T20:01:02.845Z,6.88
2022-08-29T20:03:30.819Z,6.93
2022-08-29T20:05:59.457Z,5.53
2022-08-29T20:08:27.335Z,5.47
2022-08-29T20:10:56.178Z,6.50
2022-08-29T20:13:22.952Z,8.15
2022-08-29T20:15:50.024Z,7.72
2022-08-29T20:18:18.843Z,8.90
2022-08-29T20:20:46.147Z,6.05
2022-08-29T20:25:41.296Z,3.78
2022-08-29T20:28:08.445Z,3.25
2022-08-29T20:30:42.927Z,2.63
2022-08-29T20:33:11.675Z,4.10
2022-08-29T20:35:57.637Z,3.60
2022-08-29T20:38:24.515Z,2.90
2022-08-29T20:40:52.112Z,2.95
2022-08-29T20:43:19.836Z,3.03
2022-08-29T20:45:49.880Z,2.38
2022-08-29T20:48:17.049Z,2.55
2022-08-29T20:50:44.323Z,1.73
2022-08-29T20:53:12.628Z,2.60
2022-08-29T20:55:42.299Z,2.03
2022-08-29T20:58:09.183Z,4.55
2022-08-29T21:00:36.079Z,3.28
2022-08-29T21:03:21.893Z,3.63
2022-08-29T21:05:50.432Z,3.08
2022-08-29T21:08:20.891Z,3.15
2022-08-29T21:10:49.805Z,2.42
2022-08-29T21:13:17.477Z,2.20
2022-08-29T21:15:45.566Z,2.80
2022-08-29T21:18:14.648Z,2.25
2022-08-29T21:20:53.991Z,4.38
2022-08-29T21:23:22.798Z,5.20
2022-08-29T21:28:22.467Z,2.72
2022-08-29T21:30:49.290Z,3.10
2022-08-29T21:33:16.340Z,2.83
2022-08-29T21:35:43.379Z,2.83
2022-08-29T21:38:11.212Z,3.47
2022-08-29T21:40:45.077Z,2.53
2022-08-29T21:43:19.764Z,2.78
2022-08-29T21:45:47.583Z,3.95
2022-08-29T21:48:14.703Z,4.60
2022-08-29T21:50:41.902Z,4.35
2022-08-29T21:53:11.536Z,3.05
2022-08-29T21:55:38.627Z,3.58
2022-08-29T21:58:05.526Z,2.72
2022-08-29T22:00:35.365Z,4.05
2022-08-29T22:03:05.680Z,2.60
2022-08-29T22:05:33.482Z,2.15
2022-08-29T22:08:03.247Z,2.72
2022-08-29T22:10:35.030Z,2.85
2022-08-29T22:13:03.185Z,3.42
2022-08-29T22:15:48.517Z,2.60
2022-08-29T22:18:15.954Z,3.75
2022-08-29T22:20:44.223Z,2.87
2022-08-29T22:25:37.992Z,2.83
2022-08-29T22:28:05.444Z,3.33
2022-08-29T22:30:33.051Z,3.50
2022-08-29T22:33:01.335Z,4.05
2022-08-29T22:35:28.939Z,2.95
2022-08-29T22:37:55.724Z,3.28
2022-08-29T22:40:23.018Z,3.22
2022-08-29T22:42:49.918Z,2.70
2022-08-29T22:45:18.262Z,2.20
2022-08-29T22:47:49.808Z,2.33
2022-08-29T22:50:23.618Z,3.88
2022-08-29T22:52:50.828Z,3.53
2022-08-29T22:57:49.527Z,2.40
2022-08-29T23:00:20.035Z,2.97
2022-08-29T23:02:48.014Z,3.15
2022-08-29T23:05:15.359Z,2.78
2022-08-29T23:07:42.214Z,4.18
2022-08-29T23:10:10.467Z,3.13
2022-08-29T23:15:12.204Z,2.73
2022-08-29T23:17:39.347Z,3.05
2022-08-29T23:20:09.236Z,4.38
2022-08-29T23:22:39.001Z,2.30
2022-08-29T23:25:10.440Z,2.20
2022-08-29T23:27:37.276Z,2.40
2022-08-29T23:30:06.212Z,3.75
2022-08-29T23:32:33.020Z,2.47
2022-08-29T23:34:59.794Z,2.42
2022-08-29T23:37:27.008Z,2.58
2022-08-29T23:39:53.966Z,2.95
2022-08-29T23:42:20.799Z,1.92
2022-08-29T23:44:48.575Z,3.70
2022-08-29T23:47:15.738Z,2.53
2022-08-29T23:49:42.501Z,2.70
2022-08-29T23:52:09.385Z,3.35
2022-08-29T23:54:36.793Z,2.75
2022-08-29T23:57:04.615Z,3.90
2022-08-29T23:59:51.661Z,3.88
